Waskesiu Lake, Canada
Current Conditions -  °F | °C
As of 10:00 PM on Wednesday 22 Oct 2014 (Local Time) from CYPA Reporting Station
Broken Clouds Broken Clouds  
Wind Chill:   Ceiling: 9000
Heat Index:   Visibility: 15mi
Dew Point:   Wind: 0mph
Humidity: 100%   Direction: NA
Pressure: 29.73"   Gusts: NA
Location:  53.92°N, 106.08°W
Report Text: CYPA 230400Z 00000KT 15SM BKN090 07/07 A2973 RMK AC6 SLP081
Loading
Personal Weather Stations






























Interactive Weather Map
Tropical Storm Tracking
New forecast layout! Learn more

10-Day Weather Forecast

Advertisements
Track Severe Weather on mobile